White Sands, New Mexico
Current Conditions -  °F | °C
As of 9:24 AM on Wednesday 22 Oct 2014 (Local Time) from KM63 Reporting Station
Broken Clouds Broken Clouds  
Wind Chill: 64°   Ceiling: 2500
Heat Index: 64°   Visibility: 10mi
Dew Point: 55°   Wind: 2mph
Humidity: 73%   Direction: NA
Pressure: 30.16"   Gusts: NA
Location:  32.2605°N, 106.471°W
Report Text: KM63 221524Z AUTO VRB02KT 10SM BKN025 18/13 A3016 RMK AO2 BKN V SCT
Loading
Personal Weather Stations






























Interactive Weather Map
Tropical Storm Tracking
New forecast layout! Learn more

10-Day Weather Forecast

Advertisements
Track Severe Weather on mobile